Terminal Aerodrome Forecast
Issued by NWS North Platte, NE

Home | Current Version | Previous Version | Text Only | Print | Product List | Glossary Off
Versions: 1 2 3 4 5 6 7 8 9 10 11 12 13

000
FTUS43 KLBF 201100
TAFVTN
TAF
KVTN 201134Z 2012/2112 VRB03KT P6SM SCT150 OVC200
     FM201800 18006KT P6SM OVC150
     FM210000 21008KT P6SM SCT080 SCT250=

USA.gov is the U.S. government's official web portal to all federal, state and local government web resources and services.